createdAt,value
2022-10-26T00:01:06.232Z,4.93
2022-10-26T00:03:36.077Z,5.40
2022-10-26T00:06:05.120Z,5.90
2022-10-26T00:08:32.416Z,5.70
2022-10-26T00:10:59.298Z,5.63
2022-10-26T00:13:26.564Z,5.97
2022-10-26T00:15:53.694Z,5.80
2022-10-26T00:18:20.659Z,5.50
2022-10-26T00:20:48.964Z,6.00
2022-10-26T00:23:16.249Z,5.40
2022-10-26T00:25:43.164Z,5.57
2022-10-26T00:28:10.453Z,5.47
2022-10-26T00:30:39.798Z,5.80
2022-10-26T00:33:06.743Z,5.20
2022-10-26T00:35:45.498Z,5.43
2022-10-26T00:38:14.567Z,5.80
2022-10-26T00:40:41.840Z,5.90
2022-10-26T00:43:15.774Z,5.40
2022-10-26T00:45:44.665Z,5.20
2022-10-26T00:48:19.576Z,5.30
2022-10-26T00:50:48.533Z,6.03
2022-10-26T00:53:17.810Z,5.30
2022-10-26T00:55:48.809Z,5.90
2022-10-26T00:58:16.816Z,5.30
2022-10-26T01:00:44.210Z,5.63
2022-10-26T01:03:11.366Z,5.40
2022-10-26T01:05:42.401Z,5.23
2022-10-26T01:08:10.327Z,5.07
2022-10-26T01:10:40.469Z,5.43
2022-10-26T01:13:08.080Z,5.13
2022-10-26T01:15:43.552Z,5.60
2022-10-26T01:18:17.891Z,5.50
2022-10-26T01:21:16.297Z,5.20
2022-10-26T01:24:05.274Z,5.20
2022-10-26T01:27:01.481Z,5.33
2022-10-26T01:29:51.091Z,5.73
2022-10-26T01:32:26.886Z,5.43
2022-10-26T01:35:00.228Z,5.67
2022-10-26T01:37:33.771Z,5.77
2022-10-26T01:40:06.261Z,5.23
2022-10-26T01:42:36.711Z,5.27
2022-10-26T01:45:07.041Z,4.87
2022-10-26T01:47:38.321Z,6.27
2022-10-26T01:50:07.129Z,4.97
2022-10-26T01:52:34.664Z,4.93
2022-10-26T01:55:02.645Z,5.00
2022-10-26T01:57:34.322Z,7.03
2022-10-26T02:00:07.621Z,5.73
2022-10-26T02:03:02.880Z,4.97
2022-10-26T02:05:36.584Z,5.40
2022-10-26T02:08:29.006Z,4.83
2022-10-26T02:11:10.019Z,4.83
2022-10-26T02:13:44.833Z,5.60
2022-10-26T02:16:20.334Z,5.20
2022-10-26T02:18:56.483Z,4.40
2022-10-26T02:21:28.361Z,4.60
2022-10-26T02:23:58.274Z,4.57
2022-10-26T02:26:29.216Z,4.30
2022-10-26T02:29:01.880Z,4.67
2022-10-26T02:31:29.760Z,4.87
2022-10-26T02:34:02.038Z,4.47
2022-10-26T02:36:32.838Z,4.73
2022-10-26T02:39:01.351Z,4.67
2022-10-26T02:41:30.964Z,4.90
2022-10-26T02:44:05.678Z,4.97
2022-10-26T02:46:32.949Z,4.10
2022-10-26T02:49:01.404Z,4.40
2022-10-26T02:51:34.951Z,4.43
2022-10-26T02:54:10.518Z,4.23
2022-10-26T02:56:42.368Z,4.07
2022-10-26T02:59:11.636Z,3.97
2022-10-26T03:01:40.148Z,4.23
2022-10-26T03:04:08.630Z,4.90
2022-10-26T03:06:35.606Z,4.33
2022-10-26T03:09:02.756Z,3.80
2022-10-26T03:11:30.073Z,3.90
2022-10-26T03:13:57.113Z,3.57
2022-10-26T03:16:24.501Z,3.80
2022-10-26T03:18:51.387Z,3.60
2022-10-26T03:21:20.180Z,3.87
2022-10-26T03:23:47.863Z,3.40
2022-10-26T03:26:15.069Z,3.50
2022-10-26T03:28:41.932Z,3.50
2022-10-26T03:31:09.229Z,3.47
2022-10-26T03:36:09.424Z,3.17
2022-10-26T03:38:37.672Z,2.90
2022-10-26T03:41:05.047Z,3.30
2022-10-26T03:43:31.972Z,3.57
2022-10-26T03:45:58.814Z,3.00
2022-10-26T03:48:25.967Z,2.80
2022-10-26T03:50:56.922Z,3.40
2022-10-26T03:53:24.203Z,3.30
2022-10-26T03:55:52.461Z,3.50
2022-10-26T03:58:19.643Z,3.20
2022-10-26T04:00:47.835Z,3.00
2022-10-26T04:03:15.050Z,3.23
2022-10-26T04:05:41.837Z,3.13
2022-10-26T04:08:09.558Z,3.17
2022-10-26T04:10:36.370Z,3.33
2022-10-26T04:13:04.816Z,3.23
2022-10-26T04:15:31.739Z,3.33
2022-10-26T04:17:59.900Z,3.43
2022-10-26T04:20:27.948Z,3.03
2022-10-26T04:22:59.516Z,3.30
2022-10-26T04:25:30.077Z,3.33
2022-10-26T04:28:00.403Z,3.27
2022-10-26T04:30:28.990Z,3.13
2022-10-26T04:32:56.610Z,3.60
2022-10-26T04:35:23.844Z,3.43
2022-10-26T04:37:50.971Z,3.63
2022-10-26T04:40:17.910Z,3.50
2022-10-26T04:42:46.622Z,3.60
2022-10-26T04:45:15.383Z,3.60
2022-10-26T04:47:44.241Z,3.33
2022-10-26T04:50:12.825Z,3.50
2022-10-26T04:52:40.658Z,3.73
2022-10-26T04:55:08.544Z,3.80
2022-10-26T04:57:36.204Z,3.47
2022-10-26T05:00:05.161Z,3.53
2022-10-26T05:02:32.431Z,3.60
2022-10-26T05:05:00.650Z,3.83
2022-10-26T05:07:28.230Z,3.60
2022-10-26T05:09:55.195Z,4.03
2022-10-26T05:12:22.288Z,4.17
2022-10-26T05:14:49.219Z,3.87
2022-10-26T05:17:16.226Z,4.17
2022-10-26T05:19:43.183Z,3.87
2022-10-26T05:22:11.814Z,3.87
2022-10-26T05:24:38.665Z,3.60
2022-10-26T05:27:05.659Z,6.53
2022-10-26T05:29:32.594Z,4.23
2022-10-26T05:31:59.844Z,4.20
2022-10-26T05:34:26.723Z,4.47
2022-10-26T05:36:54.863Z,4.67
2022-10-26T05:39:23.192Z,4.60
2022-10-26T05:41:50.473Z,4.37
2022-10-26T05:44:17.329Z,5.00
2022-10-26T05:46:46.759Z,4.60
2022-10-26T05:49:13.682Z,4.97
2022-10-26T05:51:41.411Z,4.80
2022-10-26T05:54:11.578Z,4.70
2022-10-26T05:56:42.906Z,5.13
2022-10-26T05:59:13.145Z,4.87
2022-10-26T06:01:54.041Z,5.20
2022-10-26T06:04:38.549Z,5.00
2022-10-26T06:07:11.573Z,5.00
2022-10-26T06:09:39.624Z,5.23
2022-10-26T06:12:09.543Z,4.70
2022-10-26T06:14:37.399Z,5.63
2022-10-26T06:17:17.548Z,4.87
2022-10-26T06:19:57.350Z,5.00
2022-10-26T06:22:39.709Z,4.63
2022-10-26T06:25:19.534Z,5.47
2022-10-26T06:27:57.051Z,5.13
2022-10-26T06:30:23.983Z,5.00
2022-10-26T06:33:01.401Z,4.77
2022-10-26T06:35:47.319Z,5.10
2022-10-26T06:38:20.174Z,4.90
2022-10-26T06:40:51.962Z,4.47
2022-10-26T06:43:26.167Z,4.73
2022-10-26T06:45:59.091Z,4.27
2022-10-26T06:48:29.928Z,5.10
2022-10-26T06:50:57.541Z,4.83
2022-10-26T06:53:31.185Z,4.60
2022-10-26T06:55:59.459Z,4.30
2022-10-26T06:58:30.680Z,4.90
2022-10-26T07:00:58.277Z,4.50
2022-10-26T07:03:25.735Z,4.57
2022-10-26T07:05:52.823Z,4.97
2022-10-26T07:08:20.189Z,4.23
2022-10-26T07:10:47.482Z,4.33
2022-10-26T07:13:14.823Z,4.20
2022-10-26T07:15:43.404Z,4.37
2022-10-26T07:18:10.746Z,4.83
2022-10-26T07:20:39.303Z,4.83
2022-10-26T07:23:07.540Z,4.40
2022-10-26T07:25:38.888Z,4.53
2022-10-26T07:28:07.272Z,4.20
2022-10-26T07:30:34.282Z,4.37
2022-10-26T07:33:04.482Z,3.80
2022-10-26T07:35:32.397Z,3.50
2022-10-26T07:38:00.250Z,3.50
2022-10-26T07:40:28.059Z,3.50
2022-10-26T07:42:57.662Z,3.50
2022-10-26T07:45:24.680Z,3.27
2022-10-26T07:47:52.289Z,3.00
2022-10-26T07:50:20.593Z,3.37
2022-10-26T07:52:48.213Z,3.40
2022-10-26T07:55:15.575Z,3.50
2022-10-26T07:57:42.787Z,3.53
2022-10-26T08:00:11.317Z,3.07
2022-10-26T08:02:39.539Z,3.03
2022-10-26T08:05:07.282Z,3.07
2022-10-26T08:07:41.234Z,3.00
2022-10-26T08:10:08.929Z,3.03
2022-10-26T08:12:36.162Z,3.10
2022-10-26T08:15:03.867Z,2.70
2022-10-26T08:17:31.065Z,3.10
2022-10-26T08:19:57.998Z,2.70
2022-10-26T08:22:25.547Z,2.50
2022-10-26T08:24:53.776Z,3.43
2022-10-26T08:27:20.938Z,5.20
2022-10-26T08:29:47.865Z,3.87
2022-10-26T08:32:15.131Z,3.13
2022-10-26T08:34:41.975Z,2.80
2022-10-26T08:37:09.191Z,2.77
2022-10-26T08:39:36.130Z,2.70
2022-10-26T08:42:11.722Z,2.80
2022-10-26T08:44:42.615Z,2.53
2022-10-26T08:49:51.380Z,2.50
2022-10-26T08:52:22.975Z,2.40
2022-10-26T08:54:54.136Z,2.23
2022-10-26T08:57:27.513Z,2.63
2022-10-26T08:59:59.538Z,4.00
2022-10-26T09:02:26.994Z,3.03
2022-10-26T09:04:55.062Z,10.03
2022-10-26T09:07:54.144Z,3.30
2022-10-26T09:10:34.737Z,2.83
2022-10-26T09:13:11.962Z,2.57
2022-10-26T09:15:51.317Z,2.30
2022-10-26T09:18:30.169Z,2.37
2022-10-26T09:21:16.213Z,2.70
2022-10-26T09:24:01.538Z,2.40
2022-10-26T09:26:33.143Z,2.27
2022-10-26T09:29:05.210Z,2.37
2022-10-26T09:31:42.344Z,2.60
2022-10-26T09:34:19.565Z,2.73
2022-10-26T09:36:46.887Z,2.37
2022-10-26T09:39:21.518Z,2.73
2022-10-26T09:41:54.296Z,2.67
2022-10-26T09:44:27.653Z,2.50
2022-10-26T09:47:01.149Z,2.70
2022-10-26T09:49:37.233Z,2.80
2022-10-26T09:52:04.999Z,3.07
2022-10-26T09:54:31.968Z,2.67
2022-10-26T09:57:02.650Z,2.93
2022-10-26T09:59:35.977Z,2.60
2022-10-26T10:02:35.122Z,3.37
2022-10-26T10:05:02.282Z,2.80
2022-10-26T10:07:29.681Z,2.93
2022-10-26T10:10:08.527Z,7.73
2022-10-26T10:12:35.758Z,3.67
2022-10-26T10:15:04.942Z,3.80
2022-10-26T10:17:32.235Z,3.23
2022-10-26T10:20:12.563Z,3.47
2022-10-26T10:22:54.536Z,6.23
2022-10-26T10:25:26.236Z,3.47
2022-10-26T10:27:54.754Z,3.80
2022-10-26T10:30:27.877Z,2.80
2022-10-26T10:33:06.236Z,2.40
2022-10-26T10:35:33.342Z,2.67
2022-10-26T10:38:01.155Z,2.27
2022-10-26T10:40:31.163Z,2.30
2022-10-26T10:43:07.842Z,2.20
2022-10-26T10:45:36.388Z,2.50
2022-10-26T10:48:12.870Z,2.23
2022-10-26T10:50:52.396Z,2.23
2022-10-26T10:53:23.940Z,2.50
2022-10-26T10:56:20.055Z,2.17
2022-10-26T10:58:58.912Z,2.30
2022-10-26T11:01:32.736Z,1.73
2022-10-26T11:04:33.179Z,2.50
2022-10-26T11:07:03.827Z,2.00
2022-10-26T11:09:33.877Z,2.77
2022-10-26T11:12:06.768Z,2.08
2022-10-26T11:14:38.775Z,2.42
2022-10-26T11:17:14.471Z,2.10
2022-10-26T11:19:46.437Z,2.33
2022-10-26T11:22:17.221Z,2.10
2022-10-26T11:24:49.176Z,2.05
2022-10-26T11:27:19.174Z,2.40
2022-10-26T11:29:54.153Z,2.30
2022-10-26T11:32:26.184Z,2.20
2022-10-26T11:35:00.014Z,2.33
2022-10-26T11:37:33.196Z,2.17
2022-10-26T11:40:04.379Z,2.20
2022-10-26T11:42:39.289Z,2.22
2022-10-26T11:45:13.785Z,2.20
2022-10-26T11:47:47.284Z,2.85
2022-10-26T11:50:19.068Z,3.70
2022-10-26T11:52:51.771Z,3.35
2022-10-26T11:55:23.492Z,2.63
2022-10-26T11:57:53.090Z,2.70
2022-10-26T12:00:22.090Z,2.63
2022-10-26T12:02:57.182Z,2.63
2022-10-26T12:05:34.822Z,2.88
2022-10-26T12:08:06.959Z,3.75
2022-10-26T12:10:38.024Z,2.55
2022-10-26T12:13:15.330Z,2.58
2022-10-26T12:16:02.168Z,2.60
2022-10-26T12:18:56.052Z,2.75
2022-10-26T12:21:27.852Z,2.97
2022-10-26T12:23:57.210Z,2.30
2022-10-26T12:26:52.101Z,3.15
2022-10-26T12:29:37.378Z,5.05
2022-10-26T12:32:20.677Z,3.10
2022-10-26T12:35:03.859Z,2.38
2022-10-26T12:37:36.554Z,2.83
2022-10-26T12:40:39.594Z,2.40
2022-10-26T12:43:39.100Z,2.05
2022-10-26T12:46:42.908Z,2.53
2022-10-26T12:49:55.655Z,2.70
2022-10-26T12:52:45.122Z,1.98
2022-10-26T12:56:00.694Z,2.33
2022-10-26T12:59:04.455Z,2.03
2022-10-26T13:02:26.322Z,1.73
2022-10-26T13:05:24.731Z,1.95
2022-10-26T13:08:00.801Z,2.70
2022-10-26T13:10:28.093Z,2.20
2022-10-26T13:12:57.481Z,2.63
2022-10-26T13:15:27.704Z,2.33
2022-10-26T13:18:01.693Z,2.50
2022-10-26T13:20:30.976Z,2.80
2022-10-26T13:22:59.873Z,2.25
2022-10-26T13:25:29.704Z,2.70
2022-10-26T13:28:04.108Z,2.45
2022-10-26T13:30:44.685Z,1.98
2022-10-26T13:33:22.873Z,2.30
2022-10-26T13:35:56.700Z,2.95
2022-10-26T13:38:30.871Z,2.80
2022-10-26T13:41:12.738Z,2.20
2022-10-26T13:43:40.197Z,2.30
2022-10-26T13:46:07.216Z,2.20
2022-10-26T13:48:38.949Z,2.50
2022-10-26T13:51:16.123Z,2.30
2022-10-26T13:53:50.212Z,2.30
2022-10-26T13:56:25.103Z,2.00
2022-10-26T13:58:57.736Z,2.00
2022-10-26T14:01:26.828Z,2.67
2022-10-26T14:03:54.251Z,2.22
2022-10-26T14:06:28.144Z,2.47
2022-10-26T14:08:58.814Z,2.63
2022-10-26T14:11:33.697Z,2.50
2022-10-26T14:14:02.180Z,2.80
2022-10-26T14:16:32.307Z,2.85
2022-10-26T14:18:59.465Z,2.50
2022-10-26T14:21:27.032Z,2.30
2022-10-26T14:23:57.470Z,2.35
2022-10-26T14:26:27.527Z,2.45
2022-10-26T14:28:56.771Z,2.35
2022-10-26T14:31:27.177Z,2.50
2022-10-26T14:33:55.220Z,2.10
2022-10-26T14:36:26.104Z,2.10
2022-10-26T14:39:00.238Z,2.35
2022-10-26T14:41:28.016Z,2.92
2022-10-26T14:43:57.889Z,3.00
2022-10-26T14:46:24.972Z,2.90
2022-10-26T14:48:54.656Z,2.78
2022-10-26T14:51:26.409Z,1.85
2022-10-26T14:53:55.585Z,2.20
2022-10-26T14:56:28.755Z,2.30
2022-10-26T14:58:57.810Z,2.13
2022-10-26T15:01:29.268Z,2.30
2022-10-26T15:04:01.743Z,2.40
2022-10-26T15:06:40.985Z,1.90
2022-10-26T15:09:33.086Z,2.20
2022-10-26T15:12:03.718Z,2.30
2022-10-26T15:14:31.299Z,2.10
2022-10-26T15:16:59.191Z,2.13
2022-10-26T15:19:27.642Z,2.10
2022-10-26T15:21:54.931Z,2.35
2022-10-26T15:24:35.879Z,2.10
2022-10-26T15:27:13.882Z,2.50
2022-10-26T15:29:43.502Z,2.38
2022-10-26T15:32:29.362Z,2.28
2022-10-26T15:35:20.728Z,1.98
2022-10-26T15:37:48.834Z,2.40
2022-10-26T15:40:16.368Z,2.05
2022-10-26T15:42:49.424Z,3.05
2022-10-26T15:45:19.550Z,2.22
2022-10-26T15:47:47.662Z,2.10
2022-10-26T15:50:15.863Z,2.00
2022-10-26T15:52:45.405Z,2.78
2022-10-26T15:55:15.468Z,1.70
2022-10-26T15:57:43.872Z,2.28
2022-10-26T16:00:15.435Z,2.30
2022-10-26T16:02:44.177Z,2.20
2022-10-26T16:05:12.462Z,2.60
2022-10-26T16:07:43.034Z,2.20
2022-10-26T16:10:15.171Z,2.30
2022-10-26T16:12:42.439Z,2.05
2022-10-26T16:15:19.663Z,2.88
2022-10-26T16:17:47.823Z,2.17
2022-10-26T16:20:17.861Z,3.10
2022-10-26T16:22:48.579Z,2.50
2022-10-26T16:25:17.552Z,2.83
2022-10-26T16:27:45.543Z,2.80
2022-10-26T16:30:15.433Z,2.85
2022-10-26T16:32:42.943Z,4.20
2022-10-26T16:35:10.911Z,2.88
2022-10-26T16:37:38.156Z,3.08
2022-10-26T16:40:06.699Z,3.80
2022-10-26T16:42:33.969Z,3.75
2022-10-26T16:45:02.807Z,3.97
2022-10-26T16:47:35.881Z,5.40
2022-10-26T16:50:03.341Z,5.57
2022-10-26T16:52:30.291Z,5.82
2022-10-26T16:54:57.608Z,5.67
2022-10-26T16:57:24.602Z,5.67
2022-10-26T16:59:51.937Z,6.88
2022-10-26T17:02:20.998Z,6.90
2022-10-26T17:04:49.425Z,7.17
2022-10-26T17:07:16.433Z,7.73
2022-10-26T17:09:43.642Z,6.40
2022-10-26T17:12:11.136Z,7.27
2022-10-26T17:14:38.383Z,7.53
2022-10-26T17:17:05.288Z,6.37
2022-10-26T17:19:32.602Z,6.93
2022-10-26T17:22:06.452Z,6.47
2022-10-26T17:24:36.590Z,5.40
2022-10-26T17:27:03.671Z,5.00
2022-10-26T17:29:31.030Z,5.20
2022-10-26T17:31:57.906Z,5.70
2022-10-26T17:34:24.973Z,5.83
2022-10-26T17:36:52.058Z,5.93
2022-10-26T17:39:20.748Z,7.93
2022-10-26T17:41:47.655Z,8.63
2022-10-26T17:44:14.665Z,6.87
2022-10-26T17:46:41.589Z,6.30
2022-10-26T17:49:08.763Z,6.33
2022-10-26T17:51:35.655Z,6.10
2022-10-26T17:54:03.055Z,6.47
2022-10-26T17:56:33.292Z,6.00
2022-10-26T17:59:02.155Z,5.97
2022-10-26T18:01:30.214Z,5.73
2022-10-26T18:03:57.895Z,5.97
2022-10-26T18:06:26.002Z,5.80
2022-10-26T18:08:55.826Z,5.80
2022-10-26T18:11:27.272Z,5.83
2022-10-26T18:13:56.636Z,6.60
2022-10-26T18:16:26.080Z,6.63
2022-10-26T18:19:00.316Z,6.57
2022-10-26T18:21:29.337Z,7.23
2022-10-26T18:23:56.720Z,6.73
2022-10-26T18:26:26.425Z,6.90
2022-10-26T18:28:55.961Z,8.93
2022-10-26T18:31:24.187Z,6.03
2022-10-26T18:33:56.375Z,6.27
2022-10-26T18:36:23.837Z,5.80
2022-10-26T18:38:51.287Z,5.50
2022-10-26T18:41:19.674Z,6.17
2022-10-26T18:43:50.997Z,5.57
2022-10-26T18:46:23.505Z,5.73
2022-10-26T18:48:51.050Z,5.50
2022-10-26T18:51:20.115Z,5.53
2022-10-26T18:53:48.307Z,5.13
2022-10-26T18:56:16.743Z,5.60
2022-10-26T18:58:45.753Z,5.03
2022-10-26T19:01:14.160Z,5.53
2022-10-26T19:03:46.591Z,5.90
2022-10-26T19:06:15.989Z,5.73
2022-10-26T19:08:44.579Z,5.87
2022-10-26T19:11:13.588Z,5.20
2022-10-26T19:13:40.602Z,5.23
2022-10-26T19:16:21.803Z,5.97
2022-10-26T19:19:00.596Z,4.90
2022-10-26T19:21:29.631Z,5.47
2022-10-26T19:23:58.552Z,5.37
2022-10-26T19:26:33.180Z,5.30
2022-10-26T19:29:04.809Z,5.40
2022-10-26T19:31:36.066Z,4.90
2022-10-26T19:34:06.025Z,4.90
2022-10-26T19:36:34.428Z,5.10
2022-10-26T19:39:02.085Z,5.60
2022-10-26T19:41:30.701Z,5.50
2022-10-26T19:46:32.692Z,4.97
2022-10-26T19:49:03.778Z,5.07
2022-10-26T19:51:34.055Z,5.40
2022-10-26T19:54:04.188Z,4.97
2022-10-26T19:56:35.782Z,5.27
2022-10-26T19:59:02.899Z,5.80
2022-10-26T20:01:30.240Z,5.20
2022-10-26T20:03:57.315Z,5.20
2022-10-26T20:06:25.968Z,5.27
2022-10-26T20:08:53.613Z,4.83
2022-10-26T20:11:20.837Z,4.80
2022-10-26T20:13:48.753Z,5.43
2022-10-26T20:16:17.528Z,4.83
2022-10-26T20:18:48.125Z,4.90
2022-10-26T20:21:17.310Z,4.40
2022-10-26T20:23:45.721Z,4.60
2022-10-26T20:26:18.317Z,4.73
2022-10-26T20:28:49.261Z,4.67
2022-10-26T20:31:16.341Z,4.70
2022-10-26T20:33:43.764Z,4.40
2022-10-26T20:36:10.613Z,4.33
2022-10-26T20:38:39.483Z,4.37
2022-10-26T20:41:12.121Z,4.63
2022-10-26T20:43:40.266Z,4.47
2022-10-26T20:46:09.797Z,5.03
2022-10-26T20:48:38.609Z,4.47
2022-10-26T20:53:44.389Z,4.50
2022-10-26T20:56:22.151Z,4.63
2022-10-26T20:58:51.342Z,4.50
2022-10-26T21:01:23.754Z,4.53
2022-10-26T21:03:51.121Z,4.23
2022-10-26T21:06:18.342Z,3.90
2022-10-26T21:08:45.277Z,4.50
2022-10-26T21:11:13.852Z,4.17
2022-10-26T21:13:41.245Z,4.40
2022-10-26T21:16:08.355Z,4.37
2022-10-26T21:18:35.217Z,4.13
2022-10-26T21:21:02.397Z,4.03
2022-10-26T21:23:30.853Z,4.30
2022-10-26T21:25:57.851Z,4.67
2022-10-26T21:28:26.453Z,4.27
2022-10-26T21:30:53.281Z,4.10
2022-10-26T21:33:22.684Z,4.50
2022-10-26T21:35:54.717Z,4.47
2022-10-26T21:38:21.616Z,4.57
2022-10-26T21:40:48.474Z,4.30
2022-10-26T21:43:15.410Z,4.23
2022-10-26T21:45:43.575Z,4.50
2022-10-26T21:48:10.426Z,4.03
2022-10-26T21:50:37.236Z,4.80
2022-10-26T21:53:04.100Z,4.10
2022-10-26T21:55:30.971Z,4.20
2022-10-26T21:57:57.922Z,4.33
2022-10-26T22:00:24.819Z,4.30
2022-10-26T22:02:53.612Z,4.37
2022-10-26T22:05:20.733Z,3.73
2022-10-26T22:07:47.805Z,4.27
2022-10-26T22:10:15.073Z,4.60
2022-10-26T22:12:42.302Z,4.50
2022-10-26T22:15:09.972Z,4.83
2022-10-26T22:17:38.748Z,3.93
2022-10-26T22:20:09.272Z,4.83
2022-10-26T22:22:36.661Z,3.97
2022-10-26T22:25:03.888Z,4.40
2022-10-26T22:27:30.794Z,4.13
2022-10-26T22:29:57.623Z,3.93
2022-10-26T22:32:25.117Z,3.97
2022-10-26T22:35:04.765Z,4.20
2022-10-26T22:37:39.146Z,3.60
2022-10-26T22:40:06.875Z,3.80
2022-10-26T22:42:33.978Z,3.80
2022-10-26T22:45:00.807Z,3.70
2022-10-26T22:47:28.606Z,4.10
2022-10-26T22:49:55.529Z,3.80
2022-10-26T22:52:22.985Z,4.17
2022-10-26T22:54:51.192Z,4.63
2022-10-26T22:57:18.368Z,4.40
2022-10-26T22:59:45.199Z,4.50
2022-10-26T23:02:12.548Z,4.50
2022-10-26T23:04:39.498Z,4.30
2022-10-26T23:07:06.401Z,3.97
2022-10-26T23:09:33.374Z,4.67
2022-10-26T23:12:01.885Z,4.27
2022-10-26T23:14:28.812Z,4.27
2022-10-26T23:16:56.071Z,3.87
2022-10-26T23:19:22.980Z,4.10
2022-10-26T23:21:50.092Z,4.20
2022-10-26T23:24:16.941Z,3.70
2022-10-26T23:26:44.120Z,3.60
2022-10-26T23:29:12.407Z,3.83
2022-10-26T23:31:39.746Z,3.50
2022-10-26T23:34:06.624Z,3.90
2022-10-26T23:36:33.939Z,4.13
2022-10-26T23:39:01.037Z,4.03
2022-10-26T23:41:29.273Z,3.97
2022-10-26T23:43:56.176Z,3.97
2022-10-26T23:46:24.466Z,3.90
2022-10-26T23:48:51.392Z,4.37
2022-10-26T23:51:18.682Z,4.33
2022-10-26T23:53:45.651Z,4.00
2022-10-26T23:56:12.956Z,4.33
2022-10-26T23:58:39.824Z,3.83
